Bethel, Delaware
Current Conditions -  °F | °C
As of 2:54 PM on Sunday 25 Jan 2015 (Local Time) from KGED Reporting Station
Broken Clouds Broken Clouds  
Wind Chill: 49°   Ceiling: 4600
Heat Index: 49°   Visibility: 10mi
Dew Point: 30°   Wind: 3mph
Humidity: 48%   Direction: 270°W
Pressure: 29.83"   Gusts: NA
Location:  38.57°N, 75.62°W
Report Text: KGED 251954Z AUTO 27003KT 10SM BKN046 09/M01 A2983 RMK AO2 SLP102 T00941011
Loading
Personal Weather Stations






























Interactive Weather Map New forecast layout! Learn more

10-Day Weather Forecast

Advertisements
Track Severe Weather on mobile